Time;durP1;ratioP1;P1;durP2;ratioP2;P2;SDS_P1;SDS_P2;PMS_P1;PMS_P2;Temp;Humidity;BMP_temperature;BMP_pressure;BME280_temperature;BME280_humidity;BME280_pressure;Samples;Min_cycle;Max_cycle;Signal;HPM_P1;HPM_P2
2021/07/30 00:02:12;;;;;;;56.70;18.02;;;;;;;;;;5095215;28;20040;-76
2021/07/30 00:04:38;;;;;;;52.85;15.02;;;;;;;;;;5095602;28;20028;-76
2021/07/30 00:07:03;;;;;;;53.08;14.60;;;;;;;;;;5095438;28;20020;-76
2021/07/30 00:09:28;;;;;;;54.10;15.75;;;;;;;;;;5095403;28;20032;-77
2021/07/30 00:11:54;;;;;;;41.85;14.65;;;;;;;;;;5095731;28;20024;-77
2021/07/30 00:14:19;;;;;;;45.53;14.23;;;;;;;;;;5093977;28;20422;-77
2021/07/30 00:16:44;;;;;;;46.28;15.02;;;;;;;;;;5094965;28;20055;-77
2021/07/30 00:19:09;;;;;;;44.55;14.35;;;;;;;;;;5095070;28;20525;-76
2021/07/30 00:21:35;;;;;;;38.92;13.13;;;;;;;;;;5095562;28;20047;-76
2021/07/30 00:24:00;;;;;;;32.08;11.90;;;;;;;;;;5094826;28;20043;-77
2021/07/30 00:26:25;;;;;;;28.30;10.90;;;;;;;;;;5095041;28;20050;-77
2021/07/30 00:28:51;;;;;;;48.83;14.40;;;;;;;;;;5094785;28;20031;-77
2021/07/30 00:31:16;;;;;;;30.52;12.18;;;;;;;;;;5094897;28;20023;-77
2021/07/30 00:33:41;;;;;;;42.03;15.38;;;;;;;;;;5094976;28;20078;-77
2021/07/30 00:36:06;;;;;;;38.30;14.02;;;;;;;;;;5095135;28;20031;-77
2021/07/30 00:38:32;;;;;;;42.63;12.30;;;;;;;;;;5095052;28;20032;-77
2021/07/30 00:40:58;;;;;;;51.45;15.77;;;;;;;;;;5094827;28;20036;-78
2021/07/30 00:43:23;;;;;;;74.35;18.02;;;;;;;;;;5094483;28;20078;-77
2021/07/30 00:45:53;;;;;;;54.70;15.02;;;;;;;;;;5094570;28;20036;-77
2021/07/30 00:48:19;;;;;;;31.42;13.50;;;;;;;;;;5094352;28;20028;-78
2021/07/30 00:50:44;;;;;;;41.67;14.35;;;;;;;;;;5094358;28;20028;-78
2021/07/30 00:53:10;;;;;;;41.42;15.20;;;;;;;;;;5094575;28;20463;-78
2021/07/30 00:55:36;;;;;;;42.80;15.02;;;;;;;;;;5094842;28;20024;-78
2021/07/30 00:58:02;;;;;;;45.97;17.00;;;;;;;;;;5094424;28;20071;-78
2021/07/30 01:00:27;;;;;;;31.17;13.32;;;;;;;;;;5094213;28;20040;-78
2021/07/30 01:02:53;;;;;;;49.55;15.65;;;;;;;;;;5094483;28;20162;-78
2021/07/30 01:05:18;;;;;;;50.38;16.60;;;;;;;;;;5094300;28;20012;-78
2021/07/30 01:07:44;;;;;;;36.70;13.60;;;;;;;;;;5094272;28;20032;-78
2021/07/30 01:10:09;;;;;;;38.65;15.23;;;;;;;;;;5094236;28;20032;-78
2021/07/30 01:12:35;;;;;;;37.53;16.67;;;;;;;;;;5094353;28;20042;-78
2021/07/30 01:15:00;;;;;;;51.05;16.85;;;;;;;;;;5094463;28;20051;-78
2021/07/30 01:17:25;;;;;;;36.42;13.90;;;;;;;;;;5092526;28;20384;-78
2021/07/30 01:19:54;;;;;;;41.67;14.95;;;;;;;;;;5093913;28;20093;-78
2021/07/30 01:22:31;;;;;;;48.65;13.40;;;;;;;;;;5094033;28;20028;-78
2021/07/30 01:24:56;;;;;;;38.13;13.90;;;;;;;;;;5094025;28;20446;-78
2021/07/30 01:27:22;;;;;;;43.28;14.02;;;;;;;;;;5093996;28;20027;-78
2021/07/30 01:29:47;;;;;;;37.60;13.32;;;;;;;;;;5094011;28;20111;-78
2021/07/30 01:32:13;;;;;;;37.25;14.30;;;;;;;;;;5093660;28;20032;-78
2021/07/30 01:34:39;;;;;;;37.95;13.48;;;;;;;;;;5093571;28;20028;-78
2021/07/30 01:37:04;;;;;;;42.13;13.13;;;;;;;;;;5094060;28;20020;-79
2021/07/30 01:39:29;;;;;;;36.17;13.23;;;;;;;;;;5093442;28;20078;-78
2021/07/30 01:41:55;;;;;;;47.95;15.38;;;;;;;;;;5093867;28;20384;-78
2021/07/30 01:44:20;;;;;;;37.15;13.80;;;;;;;;;;5092890;28;20456;-78
2021/07/30 01:46:47;;;;;;;46.67;14.23;;;;;;;;;;5093880;28;20024;-78
2021/07/30 01:49:12;;;;;;;42.97;13.18;;;;;;;;;;5093628;28;20032;-79
2021/07/30 01:51:37;;;;;;;33.67;13.65;;;;;;;;;;5093698;28;20020;-78
2021/07/30 01:54:03;;;;;;;34.47;13.55;;;;;;;;;;5093689;28;20028;-78
2021/07/30 01:56:28;;;;;;;32.42;13.10;;;;;;;;;;5093552;28;20119;-78
2021/07/30 01:58:54;;;;;;;41.55;13.77;;;;;;;;;;5093272;28;20436;-78
2021/07/30 02:01:19;;;;;;;38.78;13.70;;;;;;;;;;5093216;28;20081;-78
2021/07/30 02:03:44;;;;;;;37.88;14.25;;;;;;;;;;5093555;28;20032;-77
2021/07/30 02:06:10;;;;;;;34.95;12.48;;;;;;;;;;5093387;28;20030;-78
2021/07/30 02:08:35;;;;;;;39.03;14.40;;;;;;;;;;5093568;28;20024;-78
2021/07/30 02:11:06;;;;;;;35.15;13.40;;;;;;;;;;5094881;28;20085;-78
2021/07/30 02:16:15;;;;;;;32.63;12.15;;;;;;;;;;5097366;28;20043;-78
2021/07/30 02:18:40;;;;;;;33.58;13.63;;;;;;;;;;5097480;28;20028;-78
2021/07/30 02:21:05;;;;;;;32.45;12.48;;;;;;;;;;5097257;28;20050;-79
2021/07/30 02:23:30;;;;;;;34.15;13.40;;;;;;;;;;5097478;28;20031;-78
2021/07/30 02:25:56;;;;;;;40.70;15.20;;;;;;;;;;5097441;28;20050;-78
2021/07/30 02:28:21;;;;;;;27.52;11.55;;;;;;;;;;5096118;28;20032;-78
2021/07/30 02:30:46;;;;;;;32.10;13.57;;;;;;;;;;5097358;28;20511;-79
2021/07/30 02:33:11;;;;;;;29.02;11.38;;;;;;;;;;5097289;28;20043;-78
2021/07/30 02:35:37;;;;;;;32.28;11.00;;;;;;;;;;5096945;28;20479;-78
2021/07/30 02:38:02;;;;;;;33.38;11.65;;;;;;;;;;5097654;28;20016;-78
2021/07/30 02:40:27;;;;;;;31.00;10.98;;;;;;;;;;5096983;28;20076;-78
2021/07/30 02:42:53;;;;;;;35.00;12.43;;;;;;;;;;5097186;28;20034;-78
2021/07/30 02:45:18;;;;;;;37.95;11.52;;;;;;;;;;5097029;28;20402;-78
2021/07/30 02:47:43;;;;;;;25.08;9.88;;;;;;;;;;5097153;28;20115;-78
2021/07/30 02:50:09;;;;;;;24.67;9.63;;;;;;;;;;5097016;28;20028;-78
2021/07/30 02:52:34;;;;;;;26.27;8.70;;;;;;;;;;5096657;28;20470;-78
2021/07/30 02:55:00;;;;;;;17.98;6.60;;;;;;;;;;5096974;28;20123;-79
2021/07/30 02:57:25;;;;;;;21.55;7.60;;;;;;;;;;5096539;28;20028;-78
2021/07/30 02:59:50;;;;;;;22.60;6.93;;;;;;;;;;5096887;28;20063;-79
2021/07/30 03:02:15;;;;;;;23.80;8.13;;;;;;;;;;5096637;28;20380;-79
2021/07/30 03:04:41;;;;;;;20.70;7.65;;;;;;;;;;5096841;28;20114;-78
2021/07/30 03:07:07;;;;;;;24.00;8.52;;;;;;;;;;5096620;28;20364;-79
2021/07/30 03:09:32;;;;;;;20.50;7.95;;;;;;;;;;5096656;28;20028;-78
2021/07/30 03:11:57;;;;;;;27.55;10.40;;;;;;;;;;5096577;28;20369;-78
2021/07/30 03:14:23;;;;;;;22.77;8.68;;;;;;;;;;5096441;28;20027;-78
2021/07/30 03:16:48;;;;;;;18.83;7.40;;;;;;;;;;5096239;28;20028;-78
2021/07/30 03:19:13;;;;;;;15.88;6.15;;;;;;;;;;5096280;28;20127;-78
2021/07/30 03:21:39;;;;;;;22.00;9.32;;;;;;;;;;5096076;28;20040;-78
2021/07/30 03:24:04;;;;;;;22.30;7.25;;;;;;;;;;5096497;28;20032;-78
2021/07/30 03:26:30;;;;;;;22.25;8.00;;;;;;;;;;5096165;28;20050;-79
2021/07/30 03:28:55;;;;;;;20.27;5.93;;;;;;;;;;5096619;28;20040;-78
2021/07/30 03:31:21;;;;;;;17.42;5.38;;;;;;;;;;5096122;28;20067;-78
2021/07/30 03:33:46;;;;;;;23.63;5.13;;;;;;;;;;5096257;28;20028;-78
2021/07/30 03:36:11;;;;;;;17.92;4.28;;;;;;;;;;5096099;28;20407;-78
2021/07/30 03:38:36;;;;;;;22.90;4.72;;;;;;;;;;5096227;28;20073;-78
2021/07/30 03:41:02;;;;;;;25.27;6.25;;;;;;;;;;5095770;28;20029;-79
2021/07/30 03:43:28;;;;;;;20.15;4.85;;;;;;;;;;5095917;28;20031;-78
2021/07/30 03:45:53;;;;;;;25.33;5.03;;;;;;;;;;5096027;28;20039;-78
2021/07/30 03:48:18;;;;;;;23.80;4.90;;;;;;;;;;5094460;28;20028;-78
2021/07/30 03:50:43;;;;;;;24.25;5.40;;;;;;;;;;5095996;28;20020;-78
2021/07/30 03:53:09;;;;;;;18.85;4.75;;;;;;;;;;5095771;28;20093;-78
2021/07/30 03:55:34;;;;;;;18.33;4.00;;;;;;;;;;5095750;28;20028;-78
2021/07/30 03:57:59;;;;;;;20.02;4.10;;;;;;;;;;5095751;28;20345;-78
2021/07/30 04:00:24;;;;;;;21.45;4.30;;;;;;;;;;5095272;28;20119;-79
2021/07/30 04:02:50;;;;;;;14.63;4.00;;;;;;;;;;5095917;28;20024;-78
2021/07/30 04:05:15;;;;;;;14.63;3.50;;;;;;;;;;5095768;28;20024;-79
2021/07/30 04:07:40;;;;;;;18.20;3.30;;;;;;;;;;5095575;28;20082;-78
2021/07/30 04:10:07;;;;;;;23.42;3.83;;;;;;;;;;5095520;28;20020;-78
2021/07/30 04:12:32;;;;;;;15.68;3.65;;;;;;;;;;5095389;28;20016;-79
2021/07/30 04:14:57;;;;;;;26.00;3.58;;;;;;;;;;5095357;28;20387;-78
2021/07/30 04:17:23;;;;;;;22.23;3.63;;;;;;;;;;5095316;28;20160;-78
2021/07/30 04:19:48;;;;;;;22.30;3.92;;;;;;;;;;5095377;28;20036;-78
2021/07/30 04:22:13;;;;;;;22.15;2.90;;;;;;;;;;5095157;28;20032;-78
2021/07/30 04:24:39;;;;;;;16.48;4.78;;;;;;;;;;5095230;28;20028;-79
2021/07/30 04:27:05;;;;;;;20.58;3.58;;;;;;;;;;5095237;28;20013;-78
2021/07/30 04:29:30;;;;;;;19.75;2.85;;;;;;;;;;5095279;28;20032;-78
2021/07/30 04:31:56;;;;;;;24.33;3.53;;;;;;;;;;5094350;28;20028;-79
2021/07/30 04:34:21;;;;;;;29.95;4.05;;;;;;;;;;5094232;28;20085;-79
2021/07/30 04:36:46;;;;;;;24.58;4.20;;;;;;;;;;5095171;28;20519;-78
2021/07/30 04:39:12;;;;;;;24.90;3.45;;;;;;;;;;5094886;28;20468;-78
2021/07/30 04:41:37;;;;;;;24.65;3.75;;;;;;;;;;5094861;28;20060;-78
2021/07/30 04:44:02;;;;;;;27.73;4.03;;;;;;;;;;5094918;28;20055;-78
2021/07/30 04:46:27;;;;;;;28.80;4.50;;;;;;;;;;5094669;28;20040;-78
2021/07/30 04:48:53;;;;;;;36.65;4.20;;;;;;;;;;5094845;28;20020;-78
2021/07/30 04:51:18;;;;;;;21.88;4.38;;;;;;;;;;5094290;28;20035;-78
2021/07/30 04:53:45;;;;;;;15.80;3.47;;;;;;;;;;5094625;28;20039;-79
2021/07/30 04:56:18;;;;;;;28.00;4.88;;;;;;;;;;5094900;28;20505;-78
2021/07/30 04:58:43;;;;;;;29.23;3.95;;;;;;;;;;5094452;28;20046;-78
2021/07/30 05:01:08;;;;;;;32.15;4.22;;;;;;;;;;5094477;28;20028;-79
2021/07/30 05:03:33;;;;;;;24.67;3.97;;;;;;;;;;5094403;28;20107;-78
2021/07/30 05:05:59;;;;;;;22.77;2.95;;;;;;;;;;5094432;28;20085;-78
2021/07/30 05:08:24;;;;;;;24.70;3.35;;;;;;;;;;5094317;28;20034;-78
2021/07/30 05:10:50;;;;;;;25.58;4.53;;;;;;;;;;5094340;28;20027;-79
2021/07/30 05:13:15;;;;;;;31.15;4.45;;;;;;;;;;5094199;28;20452;-78
2021/07/30 05:15:41;;;;;;;24.88;3.70;;;;;;;;;;5094215;28;20032;-79
2021/07/30 05:18:06;;;;;;;24.98;3.53;;;;;;;;;;5094182;28;20464;-79
2021/07/30 05:20:31;;;;;;;29.50;3.60;;;;;;;;;;5093944;28;20108;-79
2021/07/30 05:22:56;;;;;;;27.42;3.83;;;;;;;;;;5094398;28;20023;-78
2021/07/30 05:25:22;;;;;;;21.40;3.53;;;;;;;;;;5094008;28;20498;-78
2021/07/30 05:27:47;;;;;;;20.92;3.25;;;;;;;;;;5094289;28;20032;-79
2021/07/30 05:30:12;;;;;;;32.45;4.00;;;;;;;;;;5093708;28;20078;-79
2021/07/30 05:32:38;;;;;;;30.38;4.07;;;;;;;;;;5093611;28;20024;-78
2021/07/30 05:35:03;;;;;;;22.30;4.22;;;;;;;;;;5093999;28;20028;-78
2021/07/30 05:37:28;;;;;;;35.78;4.20;;;;;;;;;;5093269;28;20024;-78
2021/07/30 05:39:54;;;;;;;20.48;3.25;;;;;;;;;;5093667;28;20032;-78
2021/07/30 05:42:19;;;;;;;25.95;3.47;;;;;;;;;;5093469;28;20434;-78
2021/07/30 05:44:44;;;;;;;32.20;4.70;;;;;;;;;;5093507;28;20108;-78
2021/07/30 05:47:09;;;;;;;19.40;5.07;;;;;;;;;;5093419;28;20046;-79
2021/07/30 05:49:35;;;;;;;25.15;4.25;;;;;;;;;;5093533;28;20047;-78
2021/07/30 05:52:00;;;;;;;28.42;3.63;;;;;;;;;;5093409;28;20121;-78
2021/07/30 05:54:25;;;;;;;38.72;4.75;;;;;;;;;;5092283;28;20020;-78
2021/07/30 05:56:54;;;;;;;24.90;2.58;;;;;;;;;;5093437;28;20520;-79
2021/07/30 05:59:19;;;;;;;19.90;3.22;;;;;;;;;;5093357;28;20038;-78
2021/07/30 06:01:45;;;;;;;24.60;2.72;;;;;;;;;;5093279;28;20455;-78
2021/07/30 06:04:10;;;;;;;21.13;3.10;;;;;;;;;;5093057;28;20043;-79
2021/07/30 06:06:35;;;;;;;13.68;2.70;;;;;;;;;;5093685;28;20098;-78
2021/07/30 06:09:00;;;;;;;21.70;3.92;;;;;;;;;;5093486;28;20030;-79
2021/07/30 06:11:26;;;;;;;18.23;4.47;;;;;;;;;;5092993;28;20032;-78
2021/07/30 06:13:51;;;;;;;13.90;3.10;;;;;;;;;;5093414;28;20108;-79
2021/07/30 06:16:16;;;;;;;13.73;2.90;;;;;;;;;;5093109;28;20024;-79
2021/07/30 06:18:43;;;;;;;19.35;2.42;;;;;;;;;;5093131;28;20028;-79
2021/07/30 06:21:08;;;;;;;13.15;2.40;;;;;;;;;;5093039;28;20056;-78
2021/07/30 06:23:34;;;;;;;19.63;2.55;;;;;;;;;;5093167;28;20418;-78
2021/07/30 06:25:59;;;;;;;17.30;2.60;;;;;;;;;;5093241;28;20111;-79
2021/07/30 06:28:24;;;;;;;8.90;2.30;;;;;;;;;;5093095;28;20028;-78
2021/07/30 06:30:49;;;;;;;14.50;2.38;;;;;;;;;;5093218;28;20042;-78
2021/07/30 06:33:18;;;;;;;17.15;2.35;;;;;;;;;;5093441;28;20371;-79
2021/07/30 06:35:43;;;;;;;16.42;2.20;;;;;;;;;;5093164;28;20047;-79
2021/07/30 06:38:08;;;;;;;13.18;2.35;;;;;;;;;;5093131;28;20020;-79
2021/07/30 06:40:34;;;;;;;15.07;2.40;;;;;;;;;;5092819;28;20365;-78
2021/07/30 06:42:59;;;;;;;13.55;2.28;;;;;;;;;;5093141;28;20035;-79
2021/07/30 06:45:25;;;;;;;19.85;2.70;;;;;;;;;;5092545;28;20499;-78
2021/07/30 06:47:50;;;;;;;22.95;3.58;;;;;;;;;;5093094;28;20418;-78
2021/07/30 06:50:16;;;;;;;23.25;3.25;;;;;;;;;;5093028;28;20031;-78
2021/07/30 06:52:41;;;;;;;14.43;2.58;;;;;;;;;;5093098;28;20099;-79
2021/07/30 06:55:06;;;;;;;16.80;2.88;;;;;;;;;;5093017;28;20054;-79
2021/07/30 06:57:32;;;;;;;30.60;3.42;;;;;;;;;;5095090;28;20375;-79
2021/07/30 07:00:00;;;;;;;27.45;3.90;;;;;;;;;;5096740;28;20032;-79
2021/07/30 07:02:25;;;;;;;29.77;4.15;;;;;;;;;;5096742;28;20036;-79
2021/07/30 07:04:51;;;;;;;34.33;4.03;;;;;;;;;;5096664;28;20024;-80
2021/07/30 07:07:16;;;;;;;39.17;3.65;;;;;;;;;;5096606;28;20020;-80
2021/07/30 07:09:42;;;;;;;29.83;3.50;;;;;;;;;;5096615;28;20634;-80
2021/07/30 07:12:07;;;;;;;28.35;3.25;;;;;;;;;;5096557;28;20715;-80
2021/07/30 07:14:32;;;;;;;41.38;4.40;;;;;;;;;;5096695;28;20370;-80
2021/07/30 07:16:58;;;;;;;37.25;5.03;;;;;;;;;;5096541;28;20105;-80
2021/07/30 07:19:23;;;;;;;32.55;4.13;;;;;;;;;;5096358;28;20063;-79
2021/07/30 07:21:50;;;;;;;35.63;4.78;;;;;;;;;;5096033;28;20044;-80
2021/07/30 07:24:16;;;;;;;41.30;5.03;;;;;;;;;;5096492;28;20032;-80
2021/07/30 07:26:41;;;;;;;41.08;5.00;;;;;;;;;;5096394;28;20081;-80
2021/07/30 07:29:06;;;;;;;32.22;5.57;;;;;;;;;;5096588;28;20027;-80
2021/07/30 07:31:32;;;;;;;34.33;4.25;;;;;;;;;;5096228;28;20411;-80
2021/07/30 07:33:57;;;;;;;29.92;4.78;;;;;;;;;;5096312;28;20032;-79
2021/07/30 07:36:23;;;;;;;44.90;8.45;;;;;;;;;;5096065;28;20475;-80
2021/07/30 07:38:48;;;;;;;31.95;5.80;;;;;;;;;;5096209;28;20035;-80
2021/07/30 07:41:13;;;;;;;32.88;4.32;;;;;;;;;;5096009;28;20032;-81
2021/07/30 07:43:39;;;;;;;41.38;5.65;;;;;;;;;;5095706;28;20111;-80
2021/07/30 07:46:04;;;;;;;35.10;5.60;;;;;;;;;;5096133;28;20024;-80
2021/07/30 07:48:29;;;;;;;26.63;4.53;;;;;;;;;;5095881;28;20146;-80
2021/07/30 07:50:55;;;;;;;16.75;4.25;;;;;;;;;;5096250;28;20463;-80
2021/07/30 07:53:20;;;;;;;43.92;5.90;;;;;;;;;;5095815;28;20085;-80
2021/07/30 07:55:45;;;;;;;33.22;5.60;;;;;;;;;;5095837;28;20028;-79
2021/07/30 07:58:11;;;;;;;27.52;4.78;;;;;;;;;;5095794;28;20429;-80
2021/07/30 08:00:36;;;;;;;24.13;4.00;;;;;;;;;;5095611;28;20039;-80
2021/07/30 08:03:02;;;;;;;32.38;4.95;;;;;;;;;;5095382;28;20024;-80
2021/07/30 08:05:27;;;;;;;43.00;5.70;;;;;;;;;;5095606;28;20059;-80
2021/07/30 08:07:53;;;;;;;31.23;4.80;;;;;;;;;;5094888;28;20111;-80
2021/07/30 08:10:18;;;;;;;18.52;3.63;;;;;;;;;;5094403;28;20118;-80
2021/07/30 08:12:43;;;;;;;22.33;4.10;;;;;;;;;;5095492;28;20020;-79
2021/07/30 08:15:09;;;;;;;40.78;5.70;;;;;;;;;;5095463;28;20598;-81
2021/07/30 08:17:35;;;;;;;22.23;4.25;;;;;;;;;;5095415;28;20028;-79
2021/07/30 08:20:00;;;;;;;29.65;4.00;;;;;;;;;;5083105;28;20098;-81
2021/07/30 08:22:25;;;;;;;18.92;3.10;;;;;;;;;;5085211;28;20036;-84
2021/07/30 08:24:50;;;;;;;26.65;4.35;;;;;;;;;;5092277;28;20028;-80
2021/07/30 08:27:16;;;;;;;30.08;4.00;;;;;;;;;;5091099;28;20201;-80
2021/07/30 08:29:44;;;;;;;33.97;6.30;;;;;;;;;;5091666;28;20120;-80
2021/07/30 08:32:09;;;;;;;33.75;4.85;;;;;;;;;;5091685;28;20514;-81
2021/07/30 08:34:37;;;;;;;26.65;4.20;;;;;;;;;;5091076;28;20416;-80
2021/07/30 08:37:02;;;;;;;24.63;4.30;;;;;;;;;;5091261;28;20034;-84
2021/07/30 08:39:27;;;;;;;26.45;3.50;;;;;;;;;;5091884;28;20453;-80
2021/07/30 08:41:57;;;;;;;31.67;5.28;;;;;;;;;;5091558;28;20051;-81
2021/07/30 08:44:22;;;;;;;25.52;4.60;;;;;;;;;;5091263;28;20028;-80
2021/07/30 08:46:48;;;;;;;19.65;3.30;;;;;;;;;;5091439;28;20418;-80
2021/07/30 08:49:13;;;;;;;14.88;2.70;;;;;;;;;;5091146;28;20027;-81
2021/07/30 08:51:42;;;;;;;20.55;3.40;;;;;;;;;;5091952;28;20031;-84
2021/07/30 08:54:07;;;;;;;18.15;3.60;;;;;;;;;;5091904;28;20422;-81
2021/07/30 08:56:35;;;;;;;11.35;2.45;;;;;;;;;;5091168;28;20032;-80
2021/07/30 08:59:01;;;;;;;12.57;2.33;;;;;;;;;;5090749;28;20032;-80
2021/07/30 09:01:26;;;;;;;13.27;2.95;;;;;;;;;;5090768;28;20024;-80
2021/07/30 09:03:51;;;;;;;15.40;2.25;;;;;;;;;;5091022;28;20025;-80
2021/07/30 09:06:23;;;;;;;10.38;2.22;;;;;;;;;;5091151;28;20398;-84
2021/07/30 09:09:01;;;;;;;14.82;2.00;;;;;;;;;;5089768;28;20107;-80
2021/07/30 09:11:27;;;;;;;15.60;2.42;;;;;;;;;;5090876;28;20020;-80
2021/07/30 09:13:53;;;;;;;4.07;1.63;;;;;;;;;;5090974;28;20118;-80
2021/07/30 09:16:18;;;;;;;5.68;1.48;;;;;;;;;;5091521;28;20108;-80
2021/07/30 09:18:46;;;;;;;10.35;1.90;;;;;;;;;;5091289;28;20062;-80
2021/07/30 09:21:38;;;;;;;10.30;1.98;;;;;;;;;;5090451;28;20055;-80
2021/07/30 09:24:04;;;;;;;10.45;1.88;;;;;;;;;;5086687;28;20039;-80
2021/07/30 09:26:29;;;;;;;4.40;1.40;;;;;;;;;;5090822;28;20476;-80
2021/07/30 09:28:56;;;;;;;7.28;1.60;;;;;;;;;;5091745;28;20070;-80
2021/07/30 09:31:26;;;;;;;16.40;2.38;;;;;;;;;;5090813;28;20073;-81
2021/07/30 09:33:53;;;;;;;6.35;1.60;;;;;;;;;;5085177;28;20031;-81
2021/07/30 09:36:18;;;;;;;9.63;1.20;;;;;;;;;;5090925;28;20066;-81
2021/07/30 09:38:43;;;;;;;9.60;1.35;;;;;;;;;;5091233;28;20476;-81
2021/07/30 09:41:11;;;;;;;6.63;1.42;;;;;;;;;;5087908;28;20119;-81
2021/07/30 09:43:38;;;;;;;8.77;1.30;;;;;;;;;;5090731;28;20028;-82
2021/07/30 09:46:11;;;;;;;5.60;1.42;;;;;;;;;;5090427;28;20559;-83
2021/07/30 09:48:46;;;;;;;10.98;1.88;;;;;;;;;;5089378;28;20489;-83
2021/07/30 09:51:11;;;;;;;3.90;1.10;;;;;;;;;;5089905;28;20210;-83
2021/07/30 09:53:37;;;;;;;4.60;0.95;;;;;;;;;;5090712;28;20102;-80
2021/07/30 09:56:03;;;;;;;12.27;2.00;;;;;;;;;;5089551;28;20052;-81
2021/07/30 09:58:28;;;;;;;6.95;1.33;;;;;;;;;;5089711;28;20016;-81
2021/07/30 10:00:53;;;;;;;9.93;1.13;;;;;;;;;;5089197;28;20043;-81
2021/07/30 10:03:19;;;;;;;5.35;1.10;;;;;;;;;;5089511;28;20023;-82
2021/07/30 10:05:44;;;;;;;8.77;2.38;;;;;;;;;;5090605;28;20497;-81
2021/07/30 10:08:09;;;;;;;5.05;1.33;;;;;;;;;;5090154;28;20515;-81
2021/07/30 10:10:39;;;;;;;5.05;1.20;;;;;;;;;;5089389;28;20368;-82
2021/07/30 10:13:12;;;;;;;6.40;1.50;;;;;;;;;;5089802;28;20016;-82
2021/07/30 10:15:37;;;;;;;5.45;1.13;;;;;;;;;;5089453;28;20577;-82
2021/07/30 10:18:04;;;;;;;6.13;1.60;;;;;;;;;;5089873;28;20056;-82
2021/07/30 10:20:30;;;;;;;8.68;2.38;;;;;;;;;;5089621;28;20083;-83
2021/07/30 10:23:07;;;;;;;4.25;1.23;;;;;;;;;;5090068;28;20113;-82
2021/07/30 10:25:34;;;;;;;8.52;1.58;;;;;;;;;;5089245;28;20099;-81
2021/07/30 10:28:04;;;;;;;10.13;1.60;;;;;;;;;;5089825;28;20040;-81
2021/07/30 10:30:49;;;;;;;9.57;2.10;;;;;;;;;;5089642;28;20042;-82
2021/07/30 10:33:15;;;;;;;11.15;2.03;;;;;;;;;;5092974;28;20058;-82
2021/07/30 10:35:41;;;;;;;11.70;1.90;;;;;;;;;;5093244;28;20043;-81
2021/07/30 10:38:19;;;;;;;10.23;1.70;;;;;;;;;;5092315;28;20423;-82
2021/07/30 10:41:05;;;;;;;7.38;1.45;;;;;;;;;;5092006;28;20131;-83
2021/07/30 10:43:33;;;;;;;7.10;1.80;;;;;;;;;;5094923;28;20081;-81
2021/07/30 10:46:04;;;;;;;5.90;1.77;;;;;;;;;;5094550;28;20027;-82
2021/07/30 10:48:30;;;;;;;6.30;1.55;;;;;;;;;;5094736;28;20059;-81
2021/07/30 10:50:57;;;;;;;6.65;1.88;;;;;;;;;;5094300;28;20104;-83
2021/07/30 10:53:34;;;;;;;10.75;2.53;;;;;;;;;;5094670;28;20024;-82
2021/07/30 10:56:00;;;;;;;13.95;1.73;;;;;;;;;;5094104;28;20494;-82
2021/07/30 10:58:41;;;;;;;9.05;2.05;;;;;;;;;;5094645;28;20020;-82
2021/07/30 11:01:09;;;;;;;16.50;2.05;;;;;;;;;;5094163;28;20077;-83
2021/07/30 11:03:52;;;;;;;7.82;2.20;;;;;;;;;;5094459;28;20126;-82
2021/07/30 11:06:21;;;;;;;8.25;2.00;;;;;;;;;;5094092;28;20376;-83
2021/07/30 11:08:59;;;;;;;12.23;2.45;;;;;;;;;;5094578;28;20031;-85
2021/07/30 11:11:42;;;;;;;12.95;3.15;;;;;;;;;;5093955;28;20032;-82
2021/07/30 11:14:13;;;;;;;8.88;2.50;;;;;;;;;;5093406;28;20092;-82
2021/07/30 11:16:39;;;;;;;10.57;2.20;;;;;;;;;;5093560;28;20473;-82
2021/07/30 11:19:04;;;;;;;7.60;1.80;;;;;;;;;;5093448;28;20027;-81
2021/07/30 11:21:30;;;;;;;9.43;1.90;;;;;;;;;;5093675;28;20177;-82
2021/07/30 11:23:59;;;;;;;7.63;1.33;;;;;;;;;;5093820;28;20400;-85
2021/07/30 11:26:24;;;;;;;2.60;1.10;;;;;;;;;;5093999;28;20024;-82
2021/07/30 11:28:50;;;;;;;2.75;1.20;;;;;;;;;;5093659;28;20463;-82
2021/07/30 11:31:16;;;;;;;2.95;1.00;;;;;;;;;;5093364;28;20036;-82
2021/07/30 11:33:42;;;;;;;4.45;1.20;;;;;;;;;;5093518;28;20077;-82
2021/07/30 11:36:13;;;;;;;1.63;0.82;;;;;;;;;;5093329;28;20074;-83
2021/07/30 11:38:47;;;;;;;1.55;0.88;;;;;;;;;;5093315;28;20110;-82
2021/07/30 11:41:14;;;;;;;3.77;1.30;;;;;;;;;;5093288;28;20040;-82
2021/07/30 11:44:00;;;;;;;3.22;0.82;;;;;;;;;;5091910;28;20660;-82
2021/07/30 11:46:26;;;;;;;1.27;0.75;;;;;;;;;;5092405;28;20032;-82
2021/07/30 11:48:51;;;;;;;2.95;1.13;;;;;;;;;;5093200;28;20035;-82
2021/07/30 11:51:18;;;;;;;1.63;0.85;;;;;;;;;;5093232;28;20349;-82
2021/07/30 11:53:43;;;;;;;3.63;0.82;;;;;;;;;;5093238;28;20111;-83
2021/07/30 11:56:08;;;;;;;4.18;1.30;;;;;;;;;;5093323;28;20107;-84
2021/07/30 11:58:34;;;;;;;2.28;1.10;;;;;;;;;;5090858;28;20447;-82
2021/07/30 12:01:11;;;;;;;4.90;1.80;;;;;;;;;;5092478;28;20023;-83
2021/07/30 12:03:36;;;;;;;3.45;1.27;;;;;;;;;;5092572;28;20062;-81
2021/07/30 12:06:02;;;;;;;4.10;1.88;;;;;;;;;;5092302;28;20056;-81
2021/07/30 12:08:33;;;;;;;8.52;1.80;;;;;;;;;;5092414;28;20032;-81
2021/07/30 12:10:58;;;;;;;6.25;1.52;;;;;;;;;;5092443;28;20107;-81
2021/07/30 12:13:24;;;;;;;3.90;1.48;;;;;;;;;;5092530;28;20104;-82
2021/07/30 12:15:49;;;;;;;3.38;1.40;;;;;;;;;;5092951;28;20056;-81
2021/07/30 12:18:14;;;;;;;4.93;2.10;;;;;;;;;;5092141;28;20064;-81
2021/07/30 12:20:40;;;;;;;4.40;1.83;;;;;;;;;;5092045;28;20383;-82
2021/07/30 12:23:06;;;;;;;5.03;1.60;;;;;;;;;;5091978;28;20139;-83
2021/07/30 12:25:32;;;;;;;3.45;1.40;;;;;;;;;;5092200;28;20078;-83
2021/07/30 12:28:05;;;;;;;16.83;2.45;;;;;;;;;;5092397;28;20146;-86
2021/07/30 12:30:30;;;;;;;5.00;1.60;;;;;;;;;;5092092;28;20031;-83
2021/07/30 12:32:55;;;;;;;4.30;1.75;;;;;;;;;;5091309;28;20373;-82
2021/07/30 12:35:32;;;;;;;6.88;2.05;;;;;;;;;;5091524;28;20020;-83
2021/07/30 12:38:06;;;;;;;5.80;2.08;;;;;;;;;;5092341;28;20035;-82
2021/07/30 12:40:31;;;;;;;3.95;1.70;;;;;;;;;;5092181;28;20050;-82
2021/07/30 12:43:18;;;;;;;5.53;1.77;;;;;;;;;;5091683;28;20036;-82
2021/07/30 12:45:50;;;;;;;2.97;1.75;;;;;;;;;;5091195;28;20032;-81
2021/07/30 12:48:16;;;;;;;3.20;1.95;;;;;;;;;;5091658;28;20075;-81
2021/07/30 12:50:41;;;;;;;3.72;1.95;;;;;;;;;;5090922;28;20019;-81
2021/07/30 12:53:13;;;;;;;5.72;2.00;;;;;;;;;;5092158;28;20103;-81
2021/07/30 12:55:54;;;;;;;4.32;2.05;;;;;;;;;;5091281;28;20115;-81
2021/07/30 12:58:42;;;;;;;3.90;2.30;;;;;;;;;;5091283;28;20023;-82
2021/07/30 13:01:14;;;;;;;5.85;2.08;;;;;;;;;;5079901;28;20105;-81
2021/07/30 13:03:46;;;;;;;7.13;2.58;;;;;;;;;;5091526;28;20028;-81
2021/07/30 13:06:16;;;;;;;3.72;1.90;;;;;;;;;;5091486;28;20024;-81
2021/07/30 13:08:42;;;;;;;3.80;2.13;;;;;;;;;;5091160;28;20020;-82
2021/07/30 13:11:07;;;;;;;4.60;2.30;;;;;;;;;;5090870;28;20043;-82
2021/07/30 13:13:36;;;;;;;3.80;2.30;;;;;;;;;;5091015;28;20115;-81
2021/07/30 13:16:02;;;;;;;4.80;2.42;;;;;;;;;;5090721;28;20024;-81
2021/07/30 13:18:28;;;;;;;10.43;2.40;;;;;;;;;;5090807;28;20035;-82
2021/07/30 13:20:55;;;;;;;4.15;1.90;;;;;;;;;;5090896;28;20040;-81
2021/07/30 13:23:20;;;;;;;6.32;2.60;;;;;;;;;;5091622;28;20118;-82
2021/07/30 13:25:46;;;;;;;4.43;2.28;;;;;;;;;;5090896;28;20066;-81
2021/07/30 13:28:11;;;;;;;5.15;2.30;;;;;;;;;;5090822;28;20020;-81
2021/07/30 13:30:37;;;;;;;5.30;2.63;;;;;;;;;;5090233;28;20020;-82
2021/07/30 13:33:03;;;;;;;5.22;3.00;;;;;;;;;;5090829;28;20380;-82
2021/07/30 13:35:29;;;;;;;4.93;2.67;;;;;;;;;;5090944;28;20024;-82
2021/07/30 13:37:54;;;;;;;6.28;2.40;;;;;;;;;;5090521;28;20026;-82
2021/07/30 13:40:20;;;;;;;4.22;2.45;;;;;;;;;;5090138;28;20119;-82
2021/07/30 13:42:45;;;;;;;4.75;2.50;;;;;;;;;;5090507;28;20024;-82
2021/07/30 13:45:10;;;;;;;4.07;2.20;;;;;;;;;;5090507;28;20058;-82
2021/07/30 13:47:35;;;;;;;4.72;2.78;;;;;;;;;;5091232;28;20038;-82
2021/07/30 13:50:01;;;;;;;2.90;2.22;;;;;;;;;;5090283;28;20464;-82
2021/07/30 13:52:26;;;;;;;4.88;2.58;;;;;;;;;;5090420;28;20031;-82
2021/07/30 13:54:51;;;;;;;8.65;2.35;;;;;;;;;;5090243;28;20526;-82
2021/07/30 13:57:17;;;;;;;4.82;2.05;;;;;;;;;;5090493;28;20028;-82
2021/07/30 13:59:42;;;;;;;3.80;1.60;;;;;;;;;;5090633;28;20483;-82
2021/07/30 14:02:08;;;;;;;2.65;1.35;;;;;;;;;;5090600;28;20423;-81
2021/07/30 14:04:37;;;;;;;2.83;1.17;;;;;;;;;;5090002;28;20103;-82
2021/07/30 14:07:03;;;;;;;4.15;1.75;;;;;;;;;;5089203;28;20045;-81
2021/07/30 14:09:28;;;;;;;1.35;0.98;;;;;;;;;;5090038;28;20040;-82
2021/07/30 14:11:53;;;;;;;1.90;0.93;;;;;;;;;;5089858;28;20353;-82
2021/07/30 14:14:18;;;;;;;1.88;0.80;;;;;;;;;;5090459;28;20016;-82
2021/07/30 14:16:44;;;;;;;0.80;0.50;;;;;;;;;;5090028;28;20472;-81
2021/07/30 14:19:09;;;;;;;2.28;0.70;;;;;;;;;;5089752;28;20039;-81
2021/07/30 14:21:34;;;;;;;3.17;0.63;;;;;;;;;;5087760;28;20441;-81
2021/07/30 14:24:00;;;;;;;2.38;0.40;;;;;;;;;;5089792;28;20036;-81
2021/07/30 14:26:25;;;;;;;0.65;0.45;;;;;;;;;;5090447;28;20056;-81
2021/07/30 14:28:50;;;;;;;0.25;0.25;;;;;;;;;;5089826;28;20032;-81
2021/07/30 14:31:15;;;;;;;3.03;0.40;;;;;;;;;;5088923;28;20380;-81